Terminal Aerodrome Forecast
Issued by NWS

Home | Current Version | Previous Version | Text Only | Print | Product List | Glossary On
Versions: 1 2 3 4 5 6 7 8 9 10 11 12 13 14 15 16 17 18 19 20 21 22 23 24 25
000
FTUS41 KBTV 280329 AAA
TAFSLK
TAF AMD
KSLK 280329Z 2803/2824 00000KT P6SM BKN100
      TEMPO 2804/2806 3SM BR
     FM280600 00000KT 1/2SM FG VV002
     FM281200 00000KT P6SM FEW120
     FM281900 30006KT P6SM SCT150=

USA.gov is the U.S. government's official web portal to all federal, state and local government web resources and services.